createdAt,value
2023-07-12T00:01:17.800Z,99837.66
2023-07-12T00:03:45.875Z,99835.97
2023-07-12T00:06:15.013Z,99843.16
2023-07-12T00:08:43.061Z,99839.59
2023-07-12T00:11:16.859Z,99837.22
2023-07-12T00:13:46.061Z,99840.03
2023-07-12T00:16:20.934Z,99837.59
2023-07-12T00:18:48.824Z,99838.13
2023-07-12T00:21:23.828Z,99825.06
2023-07-12T00:23:53.994Z,99821.16
2023-07-12T00:26:27.758Z,99826.56
2023-07-12T00:29:03.727Z,99828.03
2023-07-12T00:31:33.988Z,99815.28
2023-07-12T00:34:01.741Z,99822.97
2023-07-12T00:36:32.180Z,99820.03
2023-07-12T00:39:01.507Z,99826.25
2023-07-12T00:41:46.240Z,99821.03
2023-07-12T00:44:20.004Z,99828.53
2023-07-12T00:46:50.246Z,99830.28
2023-07-12T00:49:17.971Z,99823.94
2023-07-12T00:51:51.394Z,99816.94
2023-07-12T00:54:21.461Z,99835.97
2023-07-12T00:56:49.325Z,99833.97
2023-07-12T00:59:24.065Z,99838.56
2023-07-12T01:02:00.865Z,99830.41
2023-07-12T01:04:32.986Z,99837.09
2023-07-12T01:07:00.989Z,99847.81
2023-07-12T01:09:29.816Z,99853.03
2023-07-12T01:11:58.252Z,99847.47
2023-07-12T01:14:28.080Z,99847.16
2023-07-12T01:16:59.337Z,99847.78
2023-07-12T01:19:27.234Z,99841.94
2023-07-12T01:21:58.171Z,99866.56
2023-07-12T01:24:28.156Z,99892.94
2023-07-12T01:27:00.918Z,99928.53
2023-07-12T01:29:31.403Z,99997.00
2023-07-12T01:31:59.516Z,99983.78
2023-07-12T01:34:27.253Z,99990.00
2023-07-12T01:36:56.780Z,99991.66
2023-07-12T01:39:25.632Z,100009.50
2023-07-12T01:41:54.626Z,100007.25
2023-07-12T01:44:22.960Z,100029.59
2023-07-12T01:46:50.886Z,100023.00
2023-07-12T01:49:18.953Z,100008.06
2023-07-12T01:51:47.288Z,100014.41
2023-07-12T01:54:16.521Z,100008.44
2023-07-12T01:56:44.235Z,100017.19
2023-07-12T01:59:11.943Z,100021.66
2023-07-12T02:01:40.181Z,100019.69
2023-07-12T02:04:08.180Z,100006.84
2023-07-12T02:06:35.914Z,99995.00
2023-07-12T02:09:04.477Z,100006.22
2023-07-12T02:11:33.600Z,100013.47
2023-07-12T02:14:01.402Z,100009.31
2023-07-12T02:16:29.189Z,100001.84
2023-07-12T02:18:57.308Z,100004.84
2023-07-12T02:21:25.030Z,100007.47
2023-07-12T02:23:54.162Z,100001.00
2023-07-12T02:26:21.984Z,100005.31
2023-07-12T02:28:51.221Z,100014.09
2023-07-12T02:31:22.063Z,100006.41
2023-07-12T02:33:50.445Z,100008.03
2023-07-12T02:36:18.949Z,100012.69
2023-07-12T02:38:47.878Z,100006.13
2023-07-12T02:41:16.859Z,100014.91
2023-07-12T02:43:45.071Z,100019.69
2023-07-12T02:46:14.803Z,100021.72
2023-07-12T02:48:42.999Z,100042.47
2023-07-12T02:51:11.257Z,100052.38
2023-07-12T02:53:41.183Z,100055.97
2023-07-12T02:56:09.614Z,100046.28
2023-07-12T02:58:37.700Z,100046.19
2023-07-12T03:01:05.655Z,100029.03
2023-07-12T03:03:34.920Z,100042.31
2023-07-12T03:06:07.167Z,100049.53
2023-07-12T03:08:35.238Z,100061.19
2023-07-12T03:11:04.145Z,100049.91
2023-07-12T03:13:31.985Z,100038.56
2023-07-12T03:16:00.382Z,100033.81
2023-07-12T03:18:28.541Z,100029.84
2023-07-12T03:21:01.994Z,100030.47
2023-07-12T03:23:31.292Z,100008.28
2023-07-12T03:26:00.241Z,100008.50
2023-07-12T03:28:28.411Z,100015.38
2023-07-12T03:31:01.037Z,100024.75
2023-07-12T03:33:29.470Z,100021.72
2023-07-12T03:35:57.325Z,100028.13
2023-07-12T03:38:27.163Z,100042.41
2023-07-12T03:40:56.355Z,100046.03
2023-07-12T03:43:24.215Z,100048.25
2023-07-12T03:45:52.182Z,100064.50
2023-07-12T03:48:20.326Z,100080.25
2023-07-12T03:50:49.850Z,100095.72
2023-07-12T03:53:18.190Z,100091.28
2023-07-12T03:55:49.088Z,100095.19
2023-07-12T03:58:19.048Z,100099.03
2023-07-12T04:00:48.676Z,100093.44
2023-07-12T04:03:17.485Z,100091.56
2023-07-12T04:05:46.498Z,100110.66
2023-07-12T04:08:14.326Z,100111.53
2023-07-12T04:10:42.213Z,100129.13
2023-07-12T04:13:11.914Z,100136.41
2023-07-12T04:15:39.797Z,100137.53
2023-07-12T04:18:07.758Z,100145.09
2023-07-12T04:20:39.007Z,100134.91
2023-07-12T04:23:07.627Z,100148.50
2023-07-12T04:25:35.780Z,100171.97
2023-07-12T04:28:03.728Z,100173.63
2023-07-12T04:30:34.293Z,100185.75
2023-07-12T04:33:02.634Z,100183.03
2023-07-12T04:35:30.448Z,100188.22
2023-07-12T04:37:58.157Z,100187.94
2023-07-12T04:40:26.520Z,100188.94
2023-07-12T04:42:54.401Z,100197.25
2023-07-12T04:45:22.087Z,100203.06
2023-07-12T04:47:52.073Z,100212.38
2023-07-12T04:50:20.222Z,100196.56
2023-07-12T04:52:47.889Z,100200.84
2023-07-12T04:55:24.742Z,100197.88
2023-07-12T04:57:53.258Z,100190.19
2023-07-12T05:00:21.567Z,100198.22
2023-07-12T05:02:50.718Z,100202.47
2023-07-12T05:05:18.599Z,100207.44
2023-07-12T05:07:46.645Z,100233.00
2023-07-12T05:10:15.396Z,100234.97
2023-07-12T05:12:43.836Z,100244.72
2023-07-12T05:15:12.930Z,100229.50
2023-07-12T05:17:42.395Z,100222.88
2023-07-12T05:20:14.058Z,100240.53
2023-07-12T05:22:42.914Z,100250.47
2023-07-12T05:25:11.925Z,100248.22
2023-07-12T05:27:40.203Z,100254.56
2023-07-12T05:30:09.664Z,100262.84
2023-07-12T05:32:37.567Z,100269.47
2023-07-12T05:35:06.725Z,100259.06
2023-07-12T05:37:36.066Z,100267.22
2023-07-12T05:40:05.176Z,100250.31
2023-07-12T05:42:33.156Z,100259.59
2023-07-12T05:45:00.935Z,100267.41
2023-07-12T05:47:28.789Z,100274.25
2023-07-12T05:49:58.113Z,100280.78
2023-07-12T05:52:26.120Z,100267.66
2023-07-12T05:54:55.473Z,100253.72
2023-07-12T05:57:23.357Z,100267.59
2023-07-12T05:59:51.246Z,100259.94
2023-07-12T06:02:19.147Z,100264.06
2023-07-12T06:04:47.260Z,100256.41
2023-07-12T06:07:15.005Z,100245.78
2023-07-12T06:09:43.041Z,100229.97
2023-07-12T06:12:13.508Z,100257.56
2023-07-12T06:14:41.503Z,100245.72
2023-07-12T06:17:09.281Z,100229.94
2023-07-12T06:19:37.078Z,100228.44
2023-07-12T06:22:05.601Z,100226.41
2023-07-12T06:24:33.709Z,100217.50
2023-07-12T06:27:01.571Z,100216.38
2023-07-12T06:29:31.369Z,100233.84
2023-07-12T06:31:59.150Z,100235.75
2023-07-12T06:34:27.136Z,100238.47
2023-07-12T06:36:54.852Z,100227.19
2023-07-12T06:39:24.741Z,100230.91
2023-07-12T06:41:52.502Z,100252.91
2023-07-12T06:44:20.449Z,100267.31
2023-07-12T06:46:49.828Z,100278.91
2023-07-12T06:49:17.767Z,100286.00
2023-07-12T06:51:47.262Z,100283.22
2023-07-12T06:54:15.343Z,100296.19
2023-07-12T06:56:44.043Z,100278.50
2023-07-12T06:59:12.681Z,100266.06
2023-07-12T07:01:40.456Z,100257.19
2023-07-12T07:04:09.749Z,100251.75
2023-07-12T07:06:37.987Z,100260.06
2023-07-12T07:09:05.825Z,100264.66
2023-07-12T07:11:33.601Z,100267.03
2023-07-12T07:14:01.753Z,100269.84
2023-07-12T07:16:29.612Z,100284.41
2023-07-12T07:18:59.626Z,100278.53
2023-07-12T07:21:29.382Z,100294.28
2023-07-12T07:23:57.329Z,100280.06
2023-07-12T07:26:25.245Z,100293.47
2023-07-12T07:28:54.700Z,100297.00
2023-07-12T07:31:22.407Z,100297.28
2023-07-12T07:33:50.177Z,100307.16
2023-07-12T07:36:17.846Z,100313.50
2023-07-12T07:38:46.940Z,100319.88
2023-07-12T07:41:17.161Z,100314.59
2023-07-12T07:43:46.414Z,100306.56
2023-07-12T07:46:16.028Z,100312.44
2023-07-12T07:48:44.241Z,100312.75
2023-07-12T07:51:12.744Z,100331.88
2023-07-12T07:53:40.915Z,100332.41
2023-07-12T07:56:10.285Z,100311.41
2023-07-12T07:58:38.213Z,100326.78
2023-07-12T08:01:06.264Z,100325.41
2023-07-12T08:03:36.171Z,100329.81
2023-07-12T08:06:04.370Z,100331.72
2023-07-12T08:08:34.227Z,100340.88
2023-07-12T08:11:02.107Z,100351.97
2023-07-12T08:13:31.229Z,100353.41
2023-07-12T08:15:59.117Z,100366.34
2023-07-12T08:18:27.143Z,100367.97
2023-07-12T08:20:56.329Z,100374.88
2023-07-12T08:23:24.293Z,100381.34
2023-07-12T08:25:53.821Z,100387.47
2023-07-12T08:28:21.637Z,100387.88
2023-07-12T08:30:50.814Z,100387.63
2023-07-12T08:33:19.020Z,100384.88
2023-07-12T08:35:49.586Z,100393.97
2023-07-12T08:38:19.889Z,100397.59
2023-07-12T08:40:51.969Z,100397.38
2023-07-12T08:43:23.058Z,100392.50
2023-07-12T08:45:57.467Z,100391.53
2023-07-12T08:48:26.346Z,100392.00
2023-07-12T08:50:54.066Z,100393.66
2023-07-12T08:53:25.944Z,100391.69
2023-07-12T08:55:54.971Z,100398.88
2023-07-12T08:58:26.222Z,100394.53
2023-07-12T09:01:03.235Z,100392.00
2023-07-12T09:03:31.684Z,100397.06
2023-07-12T09:06:00.057Z,100391.84
2023-07-12T09:08:35.405Z,100400.13
2023-07-12T09:11:03.554Z,100390.81
2023-07-12T09:13:36.208Z,100396.38
2023-07-12T09:16:21.014Z,100394.41
2023-07-12T09:18:50.941Z,100394.09
2023-07-12T09:21:23.511Z,100400.81
2023-07-12T09:23:54.700Z,100401.69
2023-07-12T09:26:24.766Z,100400.88
2023-07-12T09:28:57.445Z,100401.13
2023-07-12T09:31:31.285Z,100395.22
2023-07-12T09:34:05.543Z,100403.97
2023-07-12T09:36:37.020Z,100396.97
2023-07-12T09:39:06.871Z,100388.41
2023-07-12T09:41:34.723Z,100402.91
2023-07-12T09:44:03.125Z,100400.69
2023-07-12T09:46:39.583Z,100402.28
2023-07-12T09:49:14.295Z,100402.28
2023-07-12T09:51:50.746Z,100393.91
2023-07-12T09:54:31.234Z,100389.88
2023-07-12T09:57:05.115Z,100392.88
2023-07-12T09:59:43.792Z,100396.72
2023-07-12T10:02:22.953Z,100403.25
2023-07-12T10:04:56.382Z,100408.19
2023-07-12T10:07:34.505Z,100408.78
2023-07-12T10:10:02.307Z,100409.84
2023-07-12T10:12:37.066Z,100414.81
2023-07-12T10:15:05.517Z,100419.06
2023-07-12T10:17:38.591Z,100421.53
2023-07-12T10:20:15.154Z,100423.94
2023-07-12T10:22:45.866Z,100418.91
2023-07-12T10:25:24.677Z,100408.91
2023-07-12T10:28:00.041Z,100418.34
2023-07-12T10:30:30.240Z,100416.44
2023-07-12T10:33:04.336Z,100418.66
2023-07-12T10:35:44.618Z,100416.69
2023-07-12T10:38:15.639Z,100423.03
2023-07-12T10:40:54.169Z,100424.69
2023-07-12T10:43:28.742Z,100425.19
2023-07-12T10:46:02.522Z,100428.66
2023-07-12T10:48:32.322Z,100417.31
2023-07-12T10:51:18.932Z,100422.75
2023-07-12T10:53:52.267Z,100417.09
2023-07-12T10:56:26.244Z,100412.63
2023-07-12T10:58:58.761Z,100405.94
2023-07-12T11:01:50.842Z,100431.69
2023-07-12T11:04:27.543Z,100429.28
2023-07-12T11:06:58.044Z,100432.06
2023-07-12T11:09:26.912Z,100434.97
2023-07-12T11:12:07.203Z,100439.75
2023-07-12T11:14:48.655Z,100452.63
2023-07-12T11:17:21.699Z,100439.41
2023-07-12T11:20:10.262Z,100442.47
2023-07-12T11:22:57.672Z,100447.50
2023-07-12T11:25:35.543Z,100446.97
2023-07-12T11:28:05.964Z,100446.78
2023-07-12T11:30:44.813Z,100442.00
2023-07-12T11:33:31.120Z,100439.78
2023-07-12T11:36:07.375Z,100453.16
2023-07-12T11:38:38.030Z,100455.09
2023-07-12T11:41:08.494Z,100450.78
2023-07-12T11:43:39.078Z,100448.16
2023-07-12T11:46:16.738Z,100450.38
2023-07-12T11:48:50.132Z,100447.97
2023-07-12T11:51:23.465Z,100450.34
2023-07-12T11:53:57.400Z,100448.09
2023-07-12T11:56:26.522Z,100452.03
2023-07-12T11:58:55.289Z,100443.91
2023-07-12T12:01:23.296Z,100452.38
2023-07-12T12:03:54.022Z,100448.63
2023-07-12T12:06:24.039Z,100446.75
2023-07-12T12:08:56.202Z,100448.81
2023-07-12T12:11:29.407Z,100447.50
2023-07-12T12:13:59.059Z,100457.41
2023-07-12T12:16:30.807Z,100451.75
2023-07-12T12:19:02.162Z,100455.75
2023-07-12T12:21:31.690Z,100454.53
2023-07-12T12:24:11.586Z,100440.66
2023-07-12T12:26:48.232Z,100440.84
2023-07-12T12:29:18.921Z,100437.38
2023-07-12T12:31:56.425Z,100445.59
2023-07-12T12:34:28.848Z,100435.28
2023-07-12T12:37:00.369Z,100444.25
2023-07-12T12:39:29.750Z,100446.88
2023-07-12T12:42:00.295Z,100425.88
2023-07-12T12:44:32.577Z,100442.81
2023-07-12T12:47:18.577Z,100435.59
2023-07-12T12:55:07.682Z,100433.09
2023-07-12T13:18:24.403Z,100446.19
2023-07-12T13:20:51.328Z,100451.25
2023-07-12T13:23:23.357Z,100454.25
2023-07-12T13:25:53.247Z,100450.53
2023-07-12T13:28:22.739Z,100447.66
2023-07-12T13:30:50.574Z,100454.84
2023-07-12T13:33:19.364Z,100451.59
2023-07-12T13:45:53.404Z,100451.88
2023-07-12T13:48:23.456Z,100452.66
2023-07-12T13:50:51.529Z,100462.41
2023-07-12T13:53:19.398Z,100462.38
2023-07-12T13:55:47.467Z,100460.41
2023-07-12T14:03:31.730Z,100463.41
2023-07-12T14:06:02.529Z,100466.50
2023-07-12T14:11:00.842Z,100459.97
2023-07-12T14:13:29.933Z,100460.50
2023-07-12T14:15:57.799Z,100461.81
2023-07-12T14:18:25.486Z,100474.19
2023-07-12T14:20:53.239Z,100474.00
2023-07-12T14:23:24.022Z,100474.09
2023-07-12T14:25:51.830Z,100472.88
2023-07-12T14:28:20.188Z,100467.91
2023-07-12T14:31:02.974Z,100468.38
2023-07-12T14:33:36.001Z,100472.28
2023-07-12T14:36:04.622Z,100469.91
2023-07-12T14:38:32.292Z,100473.19
2023-07-12T14:41:00.471Z,100459.69
2023-07-12T14:43:28.134Z,100460.00
2023-07-12T14:45:57.280Z,100455.72
2023-07-12T14:48:25.037Z,100453.28
2023-07-12T14:50:52.822Z,100449.00
2023-07-12T14:53:23.250Z,100456.88
2023-07-12T14:55:51.028Z,100455.13
2023-07-12T14:58:21.251Z,100453.69
2023-07-12T15:00:50.994Z,100441.06
2023-07-12T15:03:26.426Z,100442.03
2023-07-12T15:05:54.694Z,100436.47
2023-07-12T15:08:27.661Z,100448.63
2023-07-12T15:10:56.762Z,100456.94
2023-07-12T15:13:25.200Z,100456.78
2023-07-12T15:15:53.460Z,100458.94
2023-07-12T15:18:24.986Z,100460.06
2023-07-12T15:20:56.391Z,100457.59
2023-07-12T15:23:33.231Z,100453.19
2023-07-12T15:26:01.399Z,100443.53
2023-07-12T15:28:30.500Z,100456.78
2023-07-12T15:30:58.800Z,100456.59
2023-07-12T15:33:29.970Z,100447.53
2023-07-12T15:36:03.548Z,100440.47
2023-07-12T15:38:32.012Z,100458.16
2023-07-12T15:41:02.877Z,100448.84
2023-07-12T15:43:33.772Z,100455.56
2023-07-12T15:46:03.752Z,100452.63
2023-07-12T15:48:34.890Z,100455.19
2023-07-12T15:51:09.745Z,100448.91
2023-07-12T15:53:37.799Z,100448.03
2023-07-12T15:56:05.768Z,100449.44
2023-07-12T15:58:34.744Z,100451.88
2023-07-12T16:01:05.032Z,100456.91
2023-07-12T16:03:37.551Z,100459.47
2023-07-12T16:06:08.369Z,100466.66
2023-07-12T16:08:36.878Z,100458.19
2023-07-12T16:11:17.955Z,100462.00
2023-07-12T16:13:59.027Z,100461.53
2023-07-12T16:16:30.248Z,100476.56
2023-07-12T16:18:59.717Z,100476.56
2023-07-12T16:21:30.799Z,100464.66
2023-07-12T16:24:00.007Z,100468.56
2023-07-12T16:26:30.715Z,100459.13
2023-07-12T16:28:59.944Z,100474.53
2023-07-12T16:31:33.480Z,100469.41
2023-07-12T16:34:05.134Z,100471.88
2023-07-12T16:36:33.465Z,100465.91
2023-07-12T16:39:01.488Z,100469.41
2023-07-12T16:41:31.340Z,100466.75
2023-07-12T16:44:00.913Z,100462.31
2023-07-12T16:46:30.639Z,100466.34
2023-07-12T16:48:59.571Z,100460.00
2023-07-12T16:51:31.729Z,100452.38
2023-07-12T16:53:59.708Z,100462.44
2023-07-12T16:56:28.735Z,100467.78
2023-07-12T16:58:57.082Z,100464.19
2023-07-12T17:01:28.234Z,100468.09
2023-07-12T17:03:58.261Z,100464.69
2023-07-12T17:06:28.347Z,100467.44
2023-07-12T17:08:57.587Z,100471.56
2023-07-12T17:11:28.280Z,100474.34
2023-07-12T17:13:56.447Z,100479.88
2023-07-12T17:16:24.408Z,100474.06
2023-07-12T17:18:52.946Z,100480.72
2023-07-12T17:21:21.687Z,100474.13
2023-07-12T17:23:51.892Z,100481.31
2023-07-12T17:26:21.793Z,100488.19
2023-07-12T17:28:50.202Z,100492.38
2023-07-12T17:31:23.090Z,100490.94
2023-07-12T17:33:50.917Z,100490.75
2023-07-12T17:36:22.095Z,100492.19
2023-07-12T17:38:56.965Z,100501.19
2023-07-12T17:41:27.816Z,100490.50
2023-07-12T17:43:55.914Z,100498.41
2023-07-12T17:46:24.045Z,100501.56
2023-07-12T17:48:53.284Z,100492.22
2023-07-12T17:51:23.688Z,100503.22
2023-07-12T17:53:53.904Z,100505.06
2023-07-12T17:56:23.234Z,100508.75
2023-07-12T17:58:51.157Z,100510.09
2023-07-12T18:01:21.160Z,100511.09
2023-07-12T18:03:51.328Z,100513.44
2023-07-12T18:06:22.108Z,100515.66
2023-07-12T18:08:50.698Z,100522.25
2023-07-12T18:11:27.438Z,100525.09
2023-07-12T18:13:55.853Z,100532.59
2023-07-12T18:16:24.574Z,100541.75
2023-07-12T18:18:53.294Z,100548.59
2023-07-12T18:21:27.266Z,100547.16
2023-07-12T18:23:57.223Z,100552.94
2023-07-12T18:26:27.603Z,100551.81
2023-07-12T18:28:56.569Z,100556.56
2023-07-12T18:31:27.144Z,100556.81
2023-07-12T18:33:55.473Z,100554.78
2023-07-12T18:36:23.394Z,100562.06
2023-07-12T18:38:53.333Z,100570.97
2023-07-12T18:41:24.668Z,100566.59
2023-07-12T18:43:54.717Z,100566.16
2023-07-12T18:46:24.704Z,100567.03
2023-07-12T18:48:53.194Z,100572.94
2023-07-12T18:51:24.492Z,100586.28
2023-07-12T18:53:53.430Z,100599.06
2023-07-12T18:56:25.144Z,100599.16
2023-07-12T18:58:54.716Z,100603.97
2023-07-12T19:01:26.870Z,100599.91
2023-07-12T19:03:54.960Z,100600.47
2023-07-12T19:06:25.518Z,100599.25
2023-07-12T19:08:53.532Z,100599.53
2023-07-12T19:11:25.553Z,100604.25
2023-07-12T19:13:55.000Z,100601.81
2023-07-12T19:16:23.115Z,100610.72
2023-07-12T19:18:51.709Z,100610.75
2023-07-12T19:21:25.065Z,100603.94
2023-07-12T19:23:54.569Z,100607.88
2023-07-12T19:26:23.483Z,100608.50
2023-07-12T19:28:53.590Z,100613.44
2023-07-12T19:31:25.003Z,100612.00
2023-07-12T19:33:57.628Z,100616.16
2023-07-12T19:36:27.165Z,100610.31
2023-07-12T19:38:55.224Z,100608.09
2023-07-12T19:41:24.360Z,100615.88
2023-07-12T19:43:52.464Z,100617.53
2023-07-12T19:46:21.543Z,100614.16
2023-07-12T19:48:51.042Z,100616.91
2023-07-12T19:51:27.377Z,100626.00
2023-07-12T19:53:57.535Z,100628.19
2023-07-12T19:56:26.649Z,100617.97
2023-07-12T19:58:58.374Z,100624.03
2023-07-12T20:01:27.698Z,100624.13
2023-07-12T20:03:58.542Z,100622.44
2023-07-12T20:06:27.940Z,100620.19
2023-07-12T20:08:56.737Z,100625.19
2023-07-12T20:11:25.676Z,100623.56
2023-07-12T20:13:54.763Z,100623.53
2023-07-12T20:16:25.004Z,100626.28
2023-07-12T20:18:54.892Z,100634.84
2023-07-12T20:21:24.610Z,100630.72
2023-07-12T20:23:52.461Z,100627.41
2023-07-12T20:26:20.617Z,100625.22
2023-07-12T20:28:48.640Z,100624.41
2023-07-12T20:31:18.881Z,100627.19
2023-07-12T20:33:47.566Z,100629.38
2023-07-12T20:36:16.716Z,100636.78
2023-07-12T20:38:46.112Z,100632.84
2023-07-12T20:41:14.400Z,100628.16
2023-07-12T20:43:42.529Z,100639.47
2023-07-12T20:46:12.318Z,100638.69
2023-07-12T20:48:41.314Z,100648.09
2023-07-12T20:51:12.572Z,100650.56
2023-07-12T20:53:44.776Z,100641.19
2023-07-12T20:56:16.219Z,100645.78
2023-07-12T20:58:44.462Z,100656.84
2023-07-12T21:01:14.675Z,100653.53
2023-07-12T21:03:42.743Z,100652.41
2023-07-12T21:06:11.614Z,100653.53
2023-07-12T21:08:41.213Z,100653.00
2023-07-12T21:11:10.564Z,100655.75
2023-07-12T21:13:40.472Z,100659.09
2023-07-12T21:16:11.216Z,100659.66
2023-07-12T21:18:40.217Z,100658.03
2023-07-12T21:21:12.451Z,100655.25
2023-07-12T21:23:41.728Z,100658.00
2023-07-12T21:26:10.612Z,100658.00
2023-07-12T21:28:40.252Z,100661.88
2023-07-12T21:31:10.086Z,100669.34
2023-07-12T21:33:38.237Z,100665.16
2023-07-12T21:36:07.394Z,100664.63
2023-07-12T21:38:35.702Z,100665.16
2023-07-12T21:41:05.270Z,100660.19
2023-07-12T21:43:33.404Z,100660.19
2023-07-12T21:46:02.966Z,100657.44
2023-07-12T21:48:31.739Z,100664.06
2023-07-12T21:51:00.233Z,100670.44
2023-07-12T21:53:28.340Z,100667.69
2023-07-12T21:55:56.578Z,100679.78
2023-07-12T21:58:24.921Z,100678.41
2023-07-12T22:00:52.814Z,100682.00
2023-07-12T22:03:22.578Z,100690.53
2023-07-12T22:05:50.615Z,100676.22
2023-07-12T22:08:18.664Z,100682.84
2023-07-12T22:10:47.186Z,100668.78
2023-07-12T22:13:15.155Z,100676.22
2023-07-12T22:15:43.362Z,100684.50
2023-07-12T22:18:11.537Z,100674.84
2023-07-12T22:20:40.880Z,100677.31
2023-07-12T22:23:09.986Z,100675.38
2023-07-12T22:25:39.064Z,100666.00
2023-07-12T22:28:07.837Z,100669.88
2023-07-12T22:30:38.262Z,100679.53
2023-07-12T22:33:07.139Z,100685.56
2023-07-12T22:35:36.347Z,100689.44
2023-07-12T22:38:08.903Z,100684.75
2023-07-12T22:40:37.781Z,100694.94
2023-07-12T22:43:06.138Z,100694.94
2023-07-12T22:45:34.477Z,100706.53
2023-07-12T22:48:02.751Z,100694.13
2023-07-12T22:50:31.757Z,100693.59
2023-07-12T22:53:02.773Z,100694.41
2023-07-12T22:55:33.089Z,100691.34
2023-07-12T22:58:04.607Z,100698.25
2023-07-12T23:00:34.330Z,100702.13
2023-07-12T23:03:02.473Z,100696.88
2023-07-12T23:05:32.599Z,100694.66
2023-07-12T23:08:00.610Z,100690.53
2023-07-12T23:10:28.853Z,100691.09
2023-07-12T23:12:59.369Z,100694.94
2023-07-12T23:15:27.383Z,100687.75
2023-07-12T23:17:56.580Z,100691.66
2023-07-12T23:20:26.058Z,100694.13
2023-07-12T23:22:54.719Z,100692.75
2023-07-12T23:25:26.535Z,100693.56
2023-07-12T23:27:55.241Z,100698.78
2023-07-12T23:30:25.314Z,100697.41
2023-07-12T23:32:53.717Z,100697.69
2023-07-12T23:35:21.624Z,100705.16
2023-07-12T23:37:49.531Z,100706.53
2023-07-12T23:40:17.606Z,100709.28
2023-07-12T23:42:45.677Z,100715.31
2023-07-12T23:45:13.486Z,100720.56
2023-07-12T23:47:42.675Z,100724.06
2023-07-12T23:50:11.773Z,100720.75
2023-07-12T23:52:40.666Z,100717.47
2023-07-12T23:55:08.844Z,100720.22
2023-07-12T23:57:36.707Z,100721.31
